Time;durP1;ratioP1;P1;durP2;ratioP2;P2;SDS_P1;SDS_P2;PMS_P1;PMS_P2;Temp;Humidity;BMP_temperature;BMP_pressure;BME280_temperature;BME280_humidity;BME280_pressure;Samples;Min_cycle;Max_cycle;Signal;HPM_P1;HPM_P2
2023/10/18 00:01:39;;;;;;;63.85;57.08;;;;;;;6.42;68.27;100529.03;4920011;28;97319;-78
2023/10/18 00:04:06;;;;;;;46.90;30.08;;;;;;;6.23;68.06;100497.16;4920167;28;96875;-78
2023/10/18 00:06:32;;;;;;;46.38;34.30;;;;;;;6.30;68.46;100524.84;4919907;28;101278;-78
2023/10/18 00:08:59;;;;;;;46.03;29.17;;;;;;;6.39;68.25;100524.72;4936202;28;97465;-77
2023/10/18 00:11:25;;;;;;;46.22;27.00;;;;;;;6.43;68.09;100522.91;4918377;28;97259;-77
2023/10/18 00:13:53;;;;;;;43.20;28.15;;;;;;;6.34;67.96;100519.59;4920525;28;97489;-77
2023/10/18 00:16:22;;;;;;;43.05;27.02;;;;;;;6.39;67.87;100526.47;4936168;28;97702;-77
2023/10/18 00:18:48;;;;;;;46.03;28.38;;;;;;;6.28;67.96;100526.59;4919276;28;101618;-77
2023/10/18 00:21:14;;;;;;;38.47;25.90;;;;;;;6.35;68.06;100528.25;4920119;28;96746;-77
2023/10/18 00:23:40;;;;;;;41.30;27.52;;;;;;;6.27;67.66;100525.75;4920276;28;96980;-78
2023/10/18 00:26:09;;;;;;;43.60;27.88;;;;;;;6.27;67.71;100533.56;4935655;28;97975;-78
2023/10/18 00:28:36;;;;;;;46.90;28.45;;;;;;;6.18;67.99;100509.38;4919147;28;101803;-77
2023/10/18 00:31:12;;;;;;;44.58;27.13;;;;;;;6.14;67.97;100518.97;4936753;28;97288;-80
2023/10/18 00:33:39;;;;;;;42.33;26.03;;;;;;;6.02;68.01;100512.19;4925949;28;97457;-78
2023/10/18 00:36:05;;;;;;;46.33;28.55;;;;;;;6.12;67.79;100518.13;4919635;28;98183;-79
2023/10/18 00:38:30;;;;;;;45.85;27.88;;;;;;;6.13;67.73;100522.44;4918302;28;101640;-77
2023/10/18 00:40:56;;;;;;;42.22;26.95;;;;;;;6.12;67.63;100518.13;4903879;28;97237;-79
2023/10/18 00:43:23;;;;;;;44.78;25.92;;;;;;;6.05;67.29;100513.84;4936835;28;96943;-78
2023/10/18 00:45:52;;;;;;;41.75;26.02;;;;;;;6.00;68.08;100520.88;4936085;28;97989;-77
2023/10/18 00:48:22;;;;;;;44.85;24.90;;;;;;;5.87;67.43;100504.50;4952447;28;98309;-76
2023/10/18 00:50:52;;;;;;;45.10;25.75;;;;;;;5.98;67.61;100527.84;4924847;28;96807;-77
2023/10/18 00:53:22;;;;;;;51.50;24.83;;;;;;;6.01;67.62;100523.47;4935602;28;97267;-77
2023/10/18 00:58:47;;;;;;;39.40;24.38;;;;;;;5.73;67.85;100485.56;4915532;28;101299;-77
2023/10/18 01:01:13;;;;;;;47.33;26.35;;;;;;;5.89;68.21;100521.84;4936296;28;96774;-77
2023/10/18 01:03:45;;;;;;;37.10;24.52;;;;;;;5.91;68.33;100529.66;4919006;28;97155;-76
2023/10/18 01:06:17;;;;;;;36.55;23.85;;;;;;;5.74;68.07;100488.16;4935923;28;98053;-77
2023/10/18 01:08:44;;;;;;;38.65;22.33;;;;;;;5.94;68.46;100518.38;4935801;28;98476;-77
2023/10/18 01:11:12;;;;;;;41.63;24.70;;;;;;;5.90;68.13;100534.00;4903851;28;97365;-78
2023/10/18 01:13:42;;;;;;;42.63;23.90;;;;;;;5.83;68.15;100516.69;4935292;28;96946;-77
2023/10/18 01:16:21;;;;;;;41.50;24.05;;;;;;;5.97;67.99;100518.31;4918910;28;102134;-77
2023/10/18 01:18:48;;;;;;;48.50;26.52;;;;;;;5.97;67.84;100511.38;4936258;28;97929;-77
2023/10/18 01:21:25;;;;;;;42.90;25.25;;;;;;;5.84;67.18;100496.72;4919029;28;96733;-77
2023/10/18 01:23:56;;;;;;;38.13;22.40;;;;;;;5.83;67.67;100505.41;4920793;28;96767;-76
2023/10/18 01:26:29;;;;;;;38.35;23.17;;;;;;;5.68;67.45;100468.25;4935077;28;98221;-77
2023/10/18 01:28:57;;;;;;;41.80;24.40;;;;;;;5.90;68.10;100515.75;4935181;28;101236;-77
2023/10/18 01:31:23;;;;;;;39.53;24.40;;;;;;;5.86;67.31;100501.03;4934996;28;96812;-77
2023/10/18 01:33:50;;;;;;;38.87;24.77;;;;;;;5.68;67.87;100470.84;4919211;28;98010;-77
2023/10/18 01:36:30;;;;;;;41.05;25.85;;;;;;;5.75;67.89;100494.22;4918562;28;98567;-77
2023/10/18 01:38:56;;;;;;;38.35;25.27;;;;;;;5.72;67.58;100499.47;4919040;28;102034;-77
2023/10/18 01:41:33;;;;;;;42.57;29.90;;;;;;;5.66;67.49;100488.22;4917884;28;97100;-77
2023/10/18 01:44:07;;;;;;;44.45;29.95;;;;;;;5.62;67.68;100486.56;4919665;28;97004;-76
2023/10/18 01:46:39;;;;;;;48.50;29.33;;;;;;;5.48;68.66;100501.47;4918905;28;101155;-80
2023/10/18 01:49:06;;;;;;;53.53;32.23;;;;;;;5.15;69.09;100448.88;4902593;28;101447;-77
2023/10/18 01:51:33;;;;;;;46.10;28.47;;;;;;;5.51;69.36;100493.63;4918535;28;97297;-80
2023/10/18 01:54:03;;;;;;;42.77;27.77;;;;;;;5.50;68.65;100484.09;4935703;28;97459;-77
2023/10/18 01:56:31;;;;;;;44.33;29.40;;;;;;;5.56;68.55;100485.75;4903357;28;99100;-77
2023/10/18 01:58:57;;;;;;;45.03;29.93;;;;;;;5.47;68.56;100472.81;4934237;28;101554;-76
2023/10/18 02:01:23;;;;;;;48.47;30.83;;;;;;;5.34;68.65;100456.47;4902294;28;96802;-77
2023/10/18 02:03:50;;;;;;;54.20;32.92;;;;;;;5.33;68.74;100452.16;4934106;28;97071;-77
2023/10/18 02:06:16;;;;;;;45.63;29.30;;;;;;;5.31;68.51;100472.97;4918084;28;98501;-76
2023/10/18 02:08:42;;;;;;;45.90;27.87;;;;;;;5.36;68.35;100479.00;4950630;28;97650;-76
2023/10/18 02:11:11;;;;;;;49.03;31.07;;;;;;;5.42;68.85;100476.34;4918808;28;97057;-77
2023/10/18 02:13:37;;;;;;;51.57;31.43;;;;;;;5.40;68.61;100474.63;4919082;28;97358;-76
2023/10/18 02:16:06;;;;;;;43.90;34.93;;;;;;;5.37;68.58;100470.31;4934762;28;98009;-78
2023/10/18 02:18:35;;;;;;;49.80;34.33;;;;;;;5.35;68.67;100463.41;4917863;28;101358;-78
2023/10/18 02:21:02;;;;;;;52.90;36.33;;;;;;;5.29;68.63;100471.28;4918409;28;96827;-76
2023/10/18 02:23:36;;;;;;;57.23;36.37;;;;;;;4.92;68.67;100417.84;4919158;28;97003;-77
2023/10/18 02:26:09;;;;;;;52.53;36.53;;;;;;;5.07;69.10;100465.44;4919512;28;97741;-78
2023/10/18 02:28:36;;;;;;;60.77;41.03;;;;;;;4.77;69.23;100425.81;4902312;28;101600;-77
2023/10/18 02:31:10;;;;;;;56.13;39.00;;;;;;;4.84;69.43;100456.06;4934387;28;96724;-76
2023/10/18 02:33:36;;;;;;;49.30;28.07;;;;;;;4.76;69.53;100437.91;4907930;28;96826;-77
2023/10/18 02:36:05;;;;;;;52.33;33.10;;;;;;;4.94;69.55;100451.66;4917922;28;101146;-77
2023/10/18 02:38:32;;;;;;;45.10;27.23;;;;;;;4.95;68.95;100451.66;4932990;28;97848;-76
2023/10/18 02:40:57;;;;;;;47.63;26.77;;;;;;;5.04;69.12;100457.66;4934831;28;97478;-78
2023/10/18 02:43:24;;;;;;;47.93;26.60;;;;;;;4.92;69.40;100425.66;4918369;28;96896;-77
2023/10/18 02:45:52;;;;;;;49.08;27.30;;;;;;;5.09;68.94;100476.66;4915216;28;99551;-76
2023/10/18 02:48:23;;;;;;;46.60;27.33;;;;;;;5.01;69.18;100474.16;4931881;28;99608;-78
2023/10/18 02:50:50;;;;;;;52.67;28.93;;;;;;;5.01;68.71;100474.16;4935198;28;97741;-77
2023/10/18 02:53:17;;;;;;;48.17;30.53;;;;;;;4.79;68.85;100449.19;4934314;28;96911;-78
2023/10/18 02:55:55;;;;;;;50.30;30.80;;;;;;;4.76;68.84;100460.47;4917394;28;100989;-77
2023/10/18 02:58:32;;;;;;;54.83;30.90;;;;;;;4.53;68.64;100434.66;4917482;28;101148;-76
2023/10/18 03:01:05;;;;;;;53.20;31.67;;;;;;;4.60;68.38;100448.47;4918238;28;97017;-77
2023/10/18 03:03:32;;;;;;;51.58;29.77;;;;;;;4.62;68.17;100439.78;4916336;28;96944;-76
2023/10/18 03:06:14;;;;;;;50.73;30.73;;;;;;;4.85;68.72;100482.94;4933837;28;98549;-77
2023/10/18 03:08:44;;;;;;;53.17;33.03;;;;;;;4.60;68.30;100445.88;4930221;28;101163;-76
2023/10/18 03:11:12;;;;;;;49.53;31.20;;;;;;;4.67;68.25;100455.34;4902097;28;98662;-76
2023/10/18 03:13:42;;;;;;;50.57;32.03;;;;;;;4.80;68.17;100485.59;4911322;28;98005;-76
2023/10/18 03:18:44;;;;;;;45.53;28.80;;;;;;;4.68;68.06;100444.94;4933456;28;97995;-77
2023/10/18 03:21:20;;;;;;;49.20;28.37;;;;;;;4.58;68.16;100442.41;4920232;28;97482;-77
2023/10/18 03:23:50;;;;;;;45.97;29.10;;;;;;;4.58;67.88;100445.88;4935834;28;97659;-76
2023/10/18 03:26:22;;;;;;;45.33;27.17;;;;;;;4.72;68.17;100483.03;4937161;28;97932;-76
2023/10/18 03:28:50;;;;;;;47.03;28.02;;;;;;;4.50;68.64;100481.47;4932083;28;98566;-77
2023/10/18 03:31:27;;;;;;;45.17;29.63;;;;;;;4.35;68.88;100479.81;4936971;28;96811;-77
2023/10/18 03:33:59;;;;;;;48.30;30.40;;;;;;;4.14;68.78;100434.06;4921595;28;97360;-76
2023/10/18 03:36:26;;;;;;;44.83;26.93;;;;;;;4.40;68.80;100465.06;4918003;28;98156;-77
2023/10/18 03:39:12;;;;;;;43.63;27.50;;;;;;;4.48;68.78;100478.00;4930163;28;100782;-77
2023/10/18 03:41:40;;;;;;;43.97;28.27;;;;;;;4.35;68.72;100460.78;4922685;28;96778;-76
2023/10/18 03:44:07;;;;;;;45.13;29.60;;;;;;;4.31;68.54;100465.13;4954662;28;96950;-77
2023/10/18 03:46:48;;;;;;;44.70;26.03;;;;;;;4.27;68.93;100453.00;4919682;28;98384;-77
2023/10/18 03:49:39;;;;;;;45.90;30.53;;;;;;;4.16;69.10;100453.09;4905021;28;101410;-77
2023/10/18 03:52:16;;;;;;;49.73;33.77;;;;;;;3.95;68.80;100414.22;4923223;28;96903;-77
2023/10/18 03:57:27;;;;;;;46.33;27.03;;;;;;;4.22;68.85;100460.00;4924985;28;101038;-77
2023/10/18 03:59:59;;;;;;;44.70;26.43;;;;;;;4.23;68.59;100449.59;4920455;28;100983;-76
2023/10/18 04:04:58;;;;;;;41.30;25.43;;;;;;;4.25;68.15;100439.19;4920193;28;97987;-77
2023/10/18 04:07:26;;;;;;;41.03;26.40;;;;;;;4.11;68.34;100431.47;4921016;28;97963;-77
2023/10/18 04:12:25;;;;;;;40.07;25.03;;;;;;;4.16;68.82;100442.72;4933503;28;97879;-76
2023/10/18 04:14:58;;;;;;;39.53;24.57;;;;;;;4.23;68.68;100441.78;4915602;28;97011;-76
2023/10/18 04:20:02;;;;;;;45.30;25.63;;;;;;;4.11;68.30;100417.63;4937061;28;97773;-76
2023/10/18 04:22:28;;;;;;;37.47;25.17;;;;;;;4.13;68.29;100414.16;4936219;28;96922;-77
2023/10/18 04:24:54;;;;;;;41.87;25.87;;;;;;;4.13;68.10;100421.06;4919740;28;97495;-76
2023/10/18 04:27:21;;;;;;;46.10;26.40;;;;;;;4.14;67.94;100418.47;4919170;28;99716;-76
2023/10/18 04:29:47;;;;;;;42.67;28.20;;;;;;;4.08;67.93;100414.16;4935812;28;97916;-77
2023/10/18 04:32:18;;;;;;;44.47;28.50;;;;;;;4.07;68.43;100415.03;4918473;28;97406;-77
2023/10/18 04:34:46;;;;;;;45.50;26.93;;;;;;;3.98;68.18;100393.44;4932021;28;97699;-76
2023/10/18 04:37:14;;;;;;;44.80;27.97;;;;;;;4.05;68.05;100408.13;4915186;28;101586;-77
2023/10/18 04:39:40;;;;;;;42.73;29.60;;;;;;;4.01;67.98;100406.41;4924176;28;101272;-76
2023/10/18 04:42:08;;;;;;;42.17;28.60;;;;;;;4.02;67.67;100410.75;4932093;28;97370;-76
2023/10/18 04:44:35;;;;;;;42.27;26.60;;;;;;;3.76;68.12;100377.13;4935866;28;96935;-75
2023/10/18 04:47:02;;;;;;;43.93;26.63;;;;;;;3.88;67.98;100413.41;4929028;28;97556;-74
2023/10/18 04:49:36;;;;;;;39.27;26.30;;;;;;;3.95;68.22;100417.69;4945701;28;101020;-74
2023/10/18 04:52:05;;;;;;;45.93;27.93;;;;;;;3.90;68.08;100408.19;4936816;28;97446;-75
2023/10/18 04:54:41;;;;;;;43.83;27.83;;;;;;;4.05;68.16;100418.53;4935769;28;96879;-74
2023/10/18 04:57:11;;;;;;;49.97;30.37;;;;;;;4.00;68.87;100426.31;4920524;28;101378;-74
2023/10/18 04:59:45;;;;;;;46.90;29.97;;;;;;;4.05;69.68;100428.91;4934571;28;101126;-74
2023/10/18 05:02:17;;;;;;;44.40;28.83;;;;;;;4.13;69.43;100421.06;4935275;28;96844;-71
2023/10/18 05:04:42;;;;;;;44.83;28.50;;;;;;;4.12;69.02;100425.38;4952647;28;97196;-74
2023/10/18 05:09:45;;;;;;;46.60;29.23;;;;;;;4.05;68.55;100423.72;4919216;28;100991;-74
2023/10/18 05:17:39;;;;;;;40.40;24.33;;;;;;;3.77;68.85;100371.91;4951166;28;97477;-78
2023/10/18 05:22:48;;;;;;;36.60;22.40;;;;;;;3.92;68.37;100391.72;4920588;28;96951;-73
2023/10/18 05:27:45;;;;;;;40.97;25.20;;;;;;;4.04;68.55;100408.97;4912775;28;101911;-79
2023/10/18 05:30:15;;;;;;;44.92;25.23;;;;;;;4.24;68.11;100420.09;4935456;28;98014;-79
2023/10/18 05:35:26;;;;;;;40.37;23.80;;;;;;;4.16;67.45;100418.44;4936801;28;97156;-78
2023/10/18 05:43:12;;;;;;;45.73;25.63;;;;;;;3.98;66.80;100380.44;4918046;28;96756;-76
2023/10/18 05:45:42;;;;;;;52.08;26.55;;;;;;;4.30;67.23;100420.09;4919153;28;96881;-73
2023/10/18 05:48:13;;;;;;;46.40;26.83;;;;;;;4.43;66.86;100418.25;4924735;28;101590;-73
2023/10/18 05:50:39;;;;;;;48.03;24.90;;;;;;;4.55;66.63;100419.91;4918941;28;101338;-73
2023/10/18 05:53:11;;;;;;;48.17;26.23;;;;;;;4.61;65.91;100403.41;4931908;28;97844;-76
2023/10/18 05:55:38;;;;;;;44.03;25.33;;;;;;;4.69;65.51;100419.81;4928518;28;96872;-76
2023/10/18 05:58:07;;;;;;;41.90;27.00;;;;;;;4.60;66.01;100391.28;4921796;28;101195;-76
2023/10/18 06:00:36;;;;;;;46.57;26.03;;;;;;;4.71;65.78;100415.44;4938493;28;97968;-77
2023/10/18 06:03:01;;;;;;;39.57;26.10;;;;;;;4.62;65.66;100426.75;4939519;28;96812;-76
2023/10/18 06:05:38;;;;;;;47.13;26.00;;;;;;;4.47;65.43;100429.50;4918403;28;97293;-76
2023/10/18 06:08:05;;;;;;;45.55;27.45;;;;;;;4.31;66.33;100424.41;4938716;28;101182;-76
2023/10/18 06:10:38;;;;;;;38.83;26.23;;;;;;;4.45;66.80;100426.03;4922581;28;101125;-77
2023/10/18 06:13:09;;;;;;;42.37;26.63;;;;;;;4.83;66.01;100410.16;4917982;28;96807;-76
2023/10/18 06:15:39;;;;;;;40.15;26.48;;;;;;;5.45;64.52;100421.63;4935335;28;96820;-76
2023/10/18 06:18:09;;;;;;;43.00;27.52;;;;;;;5.92;62.93;100413.25;4948688;28;99564;-76
2023/10/18 06:20:38;;;;;;;47.10;23.38;;;;;;;6.24;62.11;100412.81;4914064;28;101116;-76
2023/10/18 06:23:28;;;;;;;40.67;25.02;;;;;;;6.41;61.51;100404.75;4926163;28;96867;-76
2023/10/18 06:25:57;;;;;;;44.15;24.15;;;;;;;6.57;61.20;100404.50;4919821;28;97006;-77
2023/10/18 06:28:24;;;;;;;45.08;25.50;;;;;;;6.90;60.25;100381.31;4917586;28;97433;-76
2023/10/18 06:30:56;;;;;;;44.05;24.67;;;;;;;7.42;59.89;100411.66;4918242;28;97558;-77
2023/10/18 06:33:22;;;;;;;43.67;26.25;;;;;;;7.56;58.72;100398.31;4915771;28;97401;-76
2023/10/18 06:35:51;;;;;;;39.60;23.38;;;;;;;7.71;58.34;100382.34;4918396;28;98273;-76
2023/10/18 06:38:23;;;;;;;36.47;24.25;;;;;;;8.18;57.63;100397.00;4916626;28;101040;-76
2023/10/18 06:40:53;;;;;;;37.97;24.65;;;;;;;8.56;57.24;100414.44;4917359;28;101630;-76
2023/10/18 06:43:20;;;;;;;35.95;23.15;;;;;;;8.69;56.79;100418.47;4931887;28;97253;-76
2023/10/18 06:45:50;;;;;;;37.95;23.00;;;;;;;8.99;55.63;100393.28;4917625;28;97184;-77
2023/10/18 06:48:16;;;;;;;37.55;22.52;;;;;;;9.48;54.93;100420.78;4933618;28;97551;-76
2023/10/18 06:50:46;;;;;;;38.60;22.48;;;;;;;9.68;54.54;100417.56;4916472;28;101009;-77
2023/10/18 06:53:14;;;;;;;36.03;22.23;;;;;;;10.17;53.76;100416.09;4920300;28;96843;-77
2023/10/18 06:58:12;;;;;;;32.00;21.60;;;;;;;11.05;52.07;100413.28;4933046;28;97933;-77
2023/10/18 07:00:43;;;;;;;38.78;22.02;;;;;;;11.41;51.27;100410.28;4936519;28;101488;-77
2023/10/18 07:03:17;;;;;;;39.97;21.15;;;;;;;11.75;50.58;100407.25;4904997;28;96842;-79
2023/10/18 07:05:46;;;;;;;40.58;21.42;;;;;;;12.13;49.58;100402.31;4938347;28;96855;-78
2023/10/18 07:08:19;;;;;;;30.15;19.85;;;;;;;12.36;48.85;100402.31;4919858;28;101471;-77
2023/10/18 07:10:54;;;;;;;30.25;20.02;;;;;;;12.68;48.46;100397.47;4920033;28;99051;-76
2023/10/18 07:13:33;;;;;;;38.40;20.48;;;;;;;13.19;48.14;100398.81;4953361;28;97396;-75
2023/10/18 07:16:18;;;;;;;33.72;19.08;;;;;;;13.50;46.56;100394.88;4922753;28;96850;-76
2023/10/18 07:18:44;;;;;;;32.00;19.55;;;;;;;13.81;45.85;100391.69;4954155;28;97547;-75
2023/10/18 07:21:11;;;;;;;35.53;20.95;;;;;;;13.89;45.29;100371.06;4936573;28;97409;-78
2023/10/18 07:23:37;;;;;;;31.52;18.58;;;;;;;14.48;44.39;100356.75;4919831;28;96876;-77
2023/10/18 07:26:07;;;;;;;28.65;19.60;;;;;;;14.91;43.35;100354.63;4903258;28;97912;-78
2023/10/18 07:28:36;;;;;;;32.10;19.77;;;;;;;15.50;42.34;100378.03;4945323;28;101641;-79
2023/10/18 07:31:10;;;;;;;34.53;20.00;;;;;;;16.04;41.69;100354.81;4943007;28;97931;-77
2023/10/18 07:33:43;;;;;;;28.77;20.50;;;;;;;16.73;40.34;100378.19;4892516;28;97554;-78
2023/10/18 07:36:17;;;;;;;31.00;22.10;;;;;;;17.61;39.27;100380.91;4911078;28;97334;-79
2023/10/18 07:38:55;;;;;;;30.85;22.33;;;;;;;17.91;38.33;100370.16;4925332;28;98424;-79
2023/10/18 07:41:26;;;;;;;33.65;22.50;;;;;;;18.65;36.99;100387.50;4920645;28;102105;-78
2023/10/18 07:43:57;;;;;;;31.35;19.00;;;;;;;19.53;35.27;100360.25;4920957;28;96953;-76
2023/10/18 07:46:27;;;;;;;;;;;;;;;20.66;33.95;100375.16;4933267;28;96902;-76
2023/10/18 07:48:54;;;;;;;36.00;21.60;;;;;;;21.96;31.73;100359.63;4943580;28;98501;-76
2023/10/18 07:51:26;;;;;;;29.65;17.27;;;;;;;23.46;30.00;100332.78;4932017;28;97563;-76
2023/10/18 07:53:53;;;;;;;30.08;17.73;;;;;;;24.67;28.63;100366.66;4934925;28;97282;-76
2023/10/18 07:56:26;;;;;;;26.08;18.83;;;;;;;26.08;26.99;100334.41;4934864;28;96957;-79
2023/10/18 07:58:53;;;;;;;31.67;17.20;;;;;;;27.67;25.33;100352.28;4930398;28;97979;-79
2023/10/18 08:04:04;;;;;;;24.98;15.32;;;;;;;30.83;21.69;100346.63;4936390;28;97150;-78
2023/10/18 08:06:33;;;;;;;25.33;14.05;;;;;;;32.21;20.73;100346.88;4918504;28;97326;-79
2023/10/18 08:09:03;;;;;;;19.83;13.50;;;;;;;32.97;19.76;100349.03;4947656;28;97530;-80
2023/10/18 08:11:32;;;;;;;21.35;13.30;;;;;;;33.48;18.84;100337.03;4935333;28;101472;-82
2023/10/18 08:13:58;;;;;;;22.95;13.15;;;;;;;34.63;18.15;100344.38;4933564;28;97005;-79
2023/10/18 08:16:27;;;;;;;28.80;14.20;;;;;;;35.63;17.76;100336.06;4931365;28;97215;-79
2023/10/18 08:18:52;;;;;;;19.25;13.10;;;;;;;36.24;17.15;100334.72;4929110;28;97923;-80
2023/10/18 08:22:22;;;;;;;19.50;12.75;;;;;;;36.84;16.24;100326.91;4929878;28;101368;-78
2023/10/18 08:24:25;;;;;;;19.50;12.77;;;;;;;37.67;16.17;100311.94;4910516;28;97415;-79
2023/10/18 08:26:52;;;;;;;15.98;11.40;;;;;;;38.48;15.17;100321.56;4904965;28;98451;-81
2023/10/18 08:29:17;;;;;;;20.73;12.20;;;;;;;38.92;15.01;100324.00;4918362;28;98016;-81
2023/10/18 08:31:55;;;;;;;18.92;11.15;;;;;;;39.27;14.71;100320.38;4902125;28;100608;-81
2023/10/18 08:34:23;;;;;;;27.10;11.63;;;;;;;39.40;14.16;100314.66;4951987;28;97344;-76
2023/10/18 08:37:01;;;;;;;21.35;19.13;;;;;;;39.77;13.56;100320.69;4935141;28;96998;-78
2023/10/18 08:39:30;;;;;;;21.58;16.45;;;;;;;39.99;14.19;100328.22;4918393;28;101295;-78
2023/10/18 08:42:14;;;;;;;21.60;14.60;;;;;;;40.31;13.76;100306.56;4927259;28;97433;-82
2023/10/18 08:44:40;;;;;;;24.00;15.23;;;;;;;41.10;13.44;100328.47;4912620;28;96923;-79
2023/10/18 08:49:34;;;;;;;25.08;18.70;;;;;;;40.90;13.12;100308.88;4930223;28;97473;-85
2023/10/18 08:52:08;;;;;;;21.17;16.30;;;;;;;40.67;13.29;100290.66;4924501;28;97635;-88
2023/10/18 08:54:36;;;;;;;20.00;18.08;;;;;;;41.37;12.79;100305.72;4922016;28;96781;-86
2023/10/18 08:57:08;;;;;;;26.23;17.27;;;;;;;41.57;13.02;100294.13;4935435;28;97364;-86
2023/10/18 08:59:52;;;;;;;14.55;12.55;;;;;;;42.03;12.54;100298.22;4918466;28;99812;-87
2023/10/18 09:02:21;;;;;;;15.60;13.68;;;;;;;42.25;12.50;100298.16;4918270;28;97772;-86
2023/10/18 09:04:51;;;;;;;14.65;9.82;;;;;;;43.02;12.04;100295.16;4930629;28;97493;-86
2023/10/18 09:07:21;;;;;;;12.95;10.10;;;;;;;42.84;11.91;100288.16;4935760;28;97281;-86
2023/10/18 09:09:57;;;;;;;13.55;12.15;;;;;;;42.56;12.71;100275.53;4936620;28;97833;-88
2023/10/18 09:15:35;;;;;;;9.93;8.82;;;;;;;43.00;11.97;100278.88;4918532;28;97254;-86
2023/10/18 09:18:03;;;;;;;12.95;10.15;;;;;;;42.83;11.70;100270.78;4923836;28;96858;-85
2023/10/18 09:20:29;;;;;;;11.25;7.43;;;;;;;42.55;11.88;100277.44;4936581;28;98324;-86
2023/10/18 09:23:05;;;;;;;14.20;9.60;;;;;;;42.12;12.27;100282.03;4920363;28;101247;-87
2023/10/18 09:25:49;;;;;;;12.27;8.63;;;;;;;40.72;12.61;100288.81;4920665;28;98025;-84
2023/10/18 09:28:20;;;;;;;10.20;8.15;;;;;;;40.63;12.58;100284.84;4952209;28;97216;-75
2023/10/18 09:30:46;;;;;;;10.18;7.72;;;;;;;41.09;12.98;100284.69;4934807;28;97650;-74
2023/10/18 09:33:13;;;;;;;40.15;22.88;;;;;;;39.66;13.17;100269.34;4935374;28;97295;-74
2023/10/18 09:35:46;;;;;;;14.65;10.48;;;;;;;39.17;13.57;100266.94;4934758;28;97078;-74
2023/10/18 09:38:12;;;;;;;21.70;11.32;;;;;;;36.50;14.69;100271.66;4919191;28;97543;-82
2023/10/18 09:40:40;;;;;;;24.58;18.35;;;;;;;33.15;17.23;100269.72;4932164;28;97685;-82
2023/10/18 09:43:06;;;;;;;10.77;8.43;;;;;;;30.50;19.74;100270.22;4902822;28;100967;-82
2023/10/18 09:45:33;;;;;;;21.13;10.35;;;;;;;28.09;21.77;100274.03;4918691;28;96798;-81
2023/10/18 09:47:59;;;;;;;10.77;5.93;;;;;;;26.85;22.98;100249.47;4918733;28;97220;-81
2023/10/18 09:50:31;;;;;;;9.35;8.45;;;;;;;25.88;24.71;100269.97;4934885;28;97620;-81
2023/10/18 09:52:57;;;;;;;13.70;8.52;;;;;;;24.63;26.03;100234.59;4944547;28;101298;-81
2023/10/18 09:55:27;;;;;;;9.75;6.80;;;;;;;23.82;27.24;100247.44;4911458;28;96842;-81
2023/10/18 09:58:04;;;;;;;12.45;7.50;;;;;;;22.90;28.37;100240.34;4901162;28;98150;-82
2023/10/18 10:00:44;;;;;;;13.75;7.85;;;;;;;22.95;28.70;100256.03;4918950;28;101802;-78
2023/10/18 10:03:10;;;;;;;10.50;7.20;;;;;;;22.81;28.83;100254.53;4926295;28;101536;-81
2023/10/18 10:05:43;;;;;;;10.70;7.57;;;;;;;22.47;29.17;100245.88;4924370;28;96961;-81
2023/10/18 10:08:10;;;;;;;8.63;7.22;;;;;;;21.89;30.32;100215.00;4939040;28;96768;-80
2023/10/18 10:10:51;;;;;;;11.40;7.32;;;;;;;21.11;31.61;100241.84;4917761;28;101200;-81
2023/10/18 10:13:27;;;;;;;12.60;7.43;;;;;;;21.16;31.51;100223.63;4937066;28;97938;-80
2023/10/18 10:16:03;;;;;;;11.45;9.48;;;;;;;20.90;31.96;100236.38;4919525;28;96833;-78
2023/10/18 10:18:32;;;;;;;13.32;8.32;;;;;;;21.18;31.53;100211.88;4918566;28;96922;-78
2023/10/18 10:21:00;;;;;;;16.55;10.45;;;;;;;21.12;31.92;100227.50;4933665;28;98650;-81
2023/10/18 10:23:43;;;;;;;17.73;13.95;;;;;;;20.31;31.36;100218.69;4935911;28;101636;-81
2023/10/18 10:26:11;;;;;;;13.95;8.23;;;;;;;20.45;31.39;100217.59;4934518;28;96863;-78
2023/10/18 10:29:33;;;;;;;10.90;6.20;;;;;;;20.28;32.10;100194.94;4916571;28;97340;-79
2023/10/18 10:32:15;;;;;;;10.13;7.20;;;;;;;19.87;33.42;100226.38;4947695;28;97768;-78
2023/10/18 10:34:41;;;;;;;14.25;9.15;;;;;;;19.49;33.54;100194.56;4870242;28;98709;-78
2023/10/18 10:37:08;;;;;;;9.02;6.53;;;;;;;19.32;34.07;100221.56;4931111;28;97361;-71
2023/10/18 10:39:44;;;;;;;14.90;8.05;;;;;;;18.68;35.02;100211.81;4949329;28;96956;-78
2023/10/18 10:42:46;;;;;;;21.13;11.77;;;;;;;18.75;35.31;100217.59;4949719;28;98676;-78
2023/10/18 10:45:53;;;;;;;9.57;6.13;;;;;;;18.66;35.59;100219.03;4909763;28;101374;-80
2023/10/18 10:51:13;;;;;;;24.08;14.05;;;;;;;18.23;35.65;100202.53;4944145;28;96718;-79
2023/10/18 10:53:50;;;;;;;10.85;7.55;;;;;;;18.16;36.09;100193.28;4919442;28;97590;-79
2023/10/18 10:56:19;;;;;;;11.82;7.13;;;;;;;18.12;36.61;100194.44;4949110;28;98410;-79
2023/10/18 10:59:03;;;;;;;15.77;11.65;;;;;;;17.29;37.62;100195.38;4949649;28;96774;-79
2023/10/18 11:01:43;;;;;;;19.08;13.35;;;;;;;16.82;38.50;100185.13;4933064;28;97816;-80
2023/10/18 11:04:24;;;;;;;14.02;10.00;;;;;;;16.16;38.93;100184.63;4950753;28;98187;-78
2023/10/18 11:06:57;;;;;;;16.85;9.05;;;;;;;15.58;40.13;100174.75;4916744;28;101453;-79
2023/10/18 11:09:33;;;;;;;11.32;7.90;;;;;;;16.17;39.37;100166.94;4926087;28;97485;-81
2023/10/18 11:12:11;;;;;;;9.30;7.50;;;;;;;16.33;39.27;100177.50;4944341;28;97036;-82
2023/10/18 11:14:37;;;;;;;16.73;9.05;;;;;;;16.09;39.63;100161.28;4931657;28;97954;-79
2023/10/18 11:17:17;;;;;;;11.43;9.50;;;;;;;15.34;40.81;100153.19;4938952;28;98482;-80
2023/10/18 11:19:59;;;;;;;10.52;7.47;;;;;;;15.72;40.87;100137.81;4904896;28;98260;-79
2023/10/18 11:22:29;;;;;;;14.70;10.63;;;;;;;15.34;40.49;100132.88;4927826;28;96971;-78
2023/10/18 11:24:56;;;;;;;14.60;13.20;;;;;;;15.29;40.98;100147.31;4933566;28;97668;-79
2023/10/18 11:27:25;;;;;;;14.13;12.73;;;;;;;15.02;41.93;100132.06;4932396;28;100225;-79
2023/10/18 11:29:55;;;;;;;15.95;14.55;;;;;;;15.26;41.58;100155.41;4934151;28;96833;-78
2023/10/18 11:32:33;;;;;;;16.73;14.77;;;;;;;15.09;41.31;100141.34;4917422;28;97297;-79
2023/10/18 11:35:16;;;;;;;15.75;14.15;;;;;;;15.26;40.65;100161.56;4918187;28;101073;-77
2023/10/18 11:37:44;;;;;;;14.55;12.98;;;;;;;15.16;41.36;100157.72;4933404;28;97714;-78
2023/10/18 11:40:15;;;;;;;10.82;8.05;;;;;;;14.69;41.74;100130.31;4901629;28;98283;-77
2023/10/18 11:42:55;;;;;;;14.57;8.23;;;;;;;14.43;42.45;100152.81;4937771;28;97605;-76
2023/10/18 11:45:21;;;;;;;13.48;8.05;;;;;;;14.30;43.21;100143.81;4936259;28;98576;-77
2023/10/18 11:47:53;;;;;;;12.77;11.48;;;;;;;14.46;43.12;100135.97;4920153;28;98482;-79
2023/10/18 11:50:23;;;;;;;12.20;11.00;;;;;;;14.25;42.65;100115.03;4920581;28;97292;-78
2023/10/18 11:52:51;;;;;;;12.52;10.43;;;;;;;14.26;42.84;100108.81;4936545;28;96989;-79
2023/10/18 11:55:17;;;;;;;10.82;7.82;;;;;;;14.36;43.56;100100.41;4936244;28;97407;-77
2023/10/18 11:57:46;;;;;;;7.45;4.70;;;;;;;14.29;42.98;100102.53;4920030;28;101560;-76
2023/10/18 12:02:55;;;;;;;8.02;5.13;;;;;;;14.57;42.39;100135.41;4921529;28;97377;-79
2023/10/18 12:05:24;;;;;;;10.77;6.82;;;;;;;14.25;43.46;100124.72;4919631;28;101236;-79
2023/10/18 12:07:50;;;;;;;7.25;4.78;;;;;;;14.25;43.68;100128.22;4954287;28;97443;-78
2023/10/18 12:10:35;;;;;;;5.03;4.47;;;;;;;14.25;42.79;100111.50;4927181;28;96754;-77
2023/10/18 12:13:12;;;;;;;7.97;5.07;;;;;;;14.17;43.90;100109.28;4943035;28;97284;-78
2023/10/18 12:15:38;;;;;;;11.00;4.70;;;;;;;14.21;43.61;100102.06;4920084;28;102055;-77
2023/10/18 12:18:09;;;;;;;9.27;4.95;;;;;;;14.29;42.45;100128.06;4925334;28;97971;-80
2023/10/18 12:20:35;;;;;;;8.95;4.63;;;;;;;14.45;42.07;100126.31;4929676;28;97363;-79
2023/10/18 12:23:10;;;;;;;7.53;5.35;;;;;;;14.26;42.66;100089.47;4947507;28;97363;-78
2023/10/18 12:25:38;;;;;;;7.82;7.03;;;;;;;14.36;42.66;100124.16;4949815;28;98095;-77